sensor_id;sensor_type;location;lat;lon;timestamp;P1;durP1;ratioP1;P2;durP2;ratioP2
69534;SDS011;56754;51.568;5.048;2023-05-07T00:00:38;6.13;;;2.57;;
69534;SDS011;56754;51.568;5.048;2023-05-07T00:03:04;6.67;;;2.57;;
69534;SDS011;56754;51.568;5.048;2023-05-07T00:05:29;5.28;;;2.60;;
69534;SDS011;56754;51.568;5.048;2023-05-07T00:07:54;5.60;;;2.50;;
69534;SDS011;56754;51.568;5.048;2023-05-07T00:10:20;7.60;;;2.60;;
69534;SDS011;56754;51.568;5.048;2023-05-07T00:12:45;7.00;;;2.17;;
69534;SDS011;56754;51.568;5.048;2023-05-07T00:15:10;6.17;;;2.50;;
69534;SDS011;56754;51.568;5.048;2023-05-07T00:17:37;5.88;;;2.50;;
69534;SDS011;56754;51.568;5.048;2023-05-07T00:20:03;5.60;;;2.50;;
69534;SDS011;56754;51.568;5.048;2023-05-07T00:22:29;4.97;;;2.40;;
69534;SDS011;56754;51.568;5.048;2023-05-07T00:24:55;5.43;;;2.40;;
69534;SDS011;56754;51.568;5.048;2023-05-07T00:27:20;4.80;;;2.40;;
69534;SDS011;56754;51.568;5.048;2023-05-07T00:29:46;6.67;;;2.77;;
69534;SDS011;56754;51.568;5.048;2023-05-07T00:32:11;5.40;;;2.87;;
69534;SDS011;56754;51.568;5.048;2023-05-07T00:34:36;4.80;;;2.30;;
69534;SDS011;56754;51.568;5.048;2023-05-07T00:37:01;6.70;;;2.80;;
69534;SDS011;56754;51.568;5.048;2023-05-07T00:39:27;5.30;;;2.20;;
69534;SDS011;56754;51.568;5.048;2023-05-07T00:41:53;4.47;;;2.10;;
69534;SDS011;56754;51.568;5.048;2023-05-07T00:44:19;4.55;;;2.20;;
69534;SDS011;56754;51.568;5.048;2023-05-07T00:46:44;3.97;;;1.90;;
69534;SDS011;56754;51.568;5.048;2023-05-07T00:49:10;5.50;;;2.30;;
69534;SDS011;56754;51.568;5.048;2023-05-07T00:51:36;5.03;;;2.40;;
69534;SDS011;56754;51.568;5.048;2023-05-07T00:54:02;4.22;;;2.13;;
69534;SDS011;56754;51.568;5.048;2023-05-07T00:56:28;6.03;;;2.50;;
69534;SDS011;56754;51.568;5.048;2023-05-07T00:58:53;5.63;;;2.50;;
69534;SDS011;56754;51.568;5.048;2023-05-07T01:01:19;5.10;;;2.53;;
69534;SDS011;56754;51.568;5.048;2023-05-07T01:03:45;4.90;;;2.27;;
69534;SDS011;56754;51.568;5.048;2023-05-07T01:06:10;4.43;;;2.47;;
69534;SDS011;56754;51.568;5.048;2023-05-07T01:08:38;4.57;;;2.20;;
69534;SDS011;56754;51.568;5.048;2023-05-07T01:11:06;4.35;;;2.30;;
69534;SDS011;56754;51.568;5.048;2023-05-07T01:13:32;5.40;;;2.75;;
69534;SDS011;56754;51.568;5.048;2023-05-07T01:15:59;5.03;;;2.43;;
69534;SDS011;56754;51.568;5.048;2023-05-07T01:18:25;3.90;;;2.20;;
69534;SDS011;56754;51.568;5.048;2023-05-07T01:20:51;6.40;;;2.80;;
69534;SDS011;56754;51.568;5.048;2023-05-07T01:23:18;4.93;;;2.30;;
69534;SDS011;56754;51.568;5.048;2023-05-07T01:25:50;4.82;;;2.50;;
69534;SDS011;56754;51.568;5.048;2023-05-07T01:28:16;5.80;;;3.03;;
69534;SDS011;56754;51.568;5.048;2023-05-07T01:30:42;5.65;;;2.63;;
69534;SDS011;56754;51.568;5.048;2023-05-07T01:33:11;5.53;;;2.90;;
69534;SDS011;56754;51.568;5.048;2023-05-07T01:35:41;4.75;;;2.13;;
69534;SDS011;56754;51.568;5.048;2023-05-07T01:38:08;5.32;;;2.50;;
69534;SDS011;56754;51.568;5.048;2023-05-07T01:40:34;6.13;;;2.90;;
69534;SDS011;56754;51.568;5.048;2023-05-07T01:43:00;5.30;;;2.30;;
69534;SDS011;56754;51.568;5.048;2023-05-07T01:45:27;5.78;;;2.78;;
69534;SDS011;56754;51.568;5.048;2023-05-07T01:47:53;5.50;;;2.67;;
69534;SDS011;56754;51.568;5.048;2023-05-07T01:50:19;4.82;;;2.38;;
69534;SDS011;56754;51.568;5.048;2023-05-07T01:52:45;5.63;;;2.97;;
69534;SDS011;56754;51.568;5.048;2023-05-07T01:55:12;5.40;;;2.65;;
69534;SDS011;56754;51.568;5.048;2023-05-07T01:57:37;5.63;;;2.53;;
69534;SDS011;56754;51.568;5.048;2023-05-07T02:00:02;5.33;;;2.70;;
69534;SDS011;56754;51.568;5.048;2023-05-07T02:02:28;5.00;;;2.70;;
69534;SDS011;56754;51.568;5.048;2023-05-07T02:04:56;5.90;;;2.90;;
69534;SDS011;56754;51.568;5.048;2023-05-07T02:07:24;6.65;;;2.95;;
69534;SDS011;56754;51.568;5.048;2023-05-07T02:09:49;5.13;;;2.73;;
69534;SDS011;56754;51.568;5.048;2023-05-07T02:12:15;6.80;;;2.70;;
69534;SDS011;56754;51.568;5.048;2023-05-07T02:14:40;5.40;;;2.80;;
69534;SDS011;56754;51.568;5.048;2023-05-07T02:17:05;4.77;;;2.60;;
69534;SDS011;56754;51.568;5.048;2023-05-07T02:19:31;5.33;;;2.53;;
69534;SDS011;56754;51.568;5.048;2023-05-07T02:21:56;5.17;;;2.43;;
69534;SDS011;56754;51.568;5.048;2023-05-07T02:24:24;5.95;;;2.92;;
69534;SDS011;56754;51.568;5.048;2023-05-07T02:26:50;6.57;;;3.80;;
69534;SDS011;56754;51.568;5.048;2023-05-07T02:29:15;5.87;;;3.03;;
69534;SDS011;56754;51.568;5.048;2023-05-07T02:31:40;6.47;;;3.03;;
69534;SDS011;56754;51.568;5.048;2023-05-07T02:34:06;5.63;;;2.83;;
69534;SDS011;56754;51.568;5.048;2023-05-07T02:36:31;5.03;;;3.03;;
69534;SDS011;56754;51.568;5.048;2023-05-07T02:38:56;6.80;;;2.47;;
69534;SDS011;56754;51.568;5.048;2023-05-07T02:41:22;5.50;;;2.97;;
69534;SDS011;56754;51.568;5.048;2023-05-07T02:43:47;5.43;;;2.83;;
69534;SDS011;56754;51.568;5.048;2023-05-07T02:46:12;6.43;;;2.70;;
69534;SDS011;56754;51.568;5.048;2023-05-07T02:48:38;5.33;;;3.10;;
69534;SDS011;56754;51.568;5.048;2023-05-07T02:51:03;5.07;;;2.70;;
69534;SDS011;56754;51.568;5.048;2023-05-07T02:53:29;5.60;;;3.00;;
69534;SDS011;56754;51.568;5.048;2023-05-07T02:55:58;5.43;;;2.53;;
69534;SDS011;56754;51.568;5.048;2023-05-07T02:58:24;5.45;;;3.17;;
69534;SDS011;56754;51.568;5.048;2023-05-07T03:00:49;6.53;;;3.30;;
69534;SDS011;56754;51.568;5.048;2023-05-07T03:03:15;6.07;;;3.20;;
69534;SDS011;56754;51.568;5.048;2023-05-07T03:05:41;6.47;;;3.20;;
69534;SDS011;56754;51.568;5.048;2023-05-07T03:08:06;5.57;;;3.30;;
69534;SDS011;56754;51.568;5.048;2023-05-07T03:10:32;7.22;;;2.88;;
69534;SDS011;56754;51.568;5.048;2023-05-07T03:12:57;6.43;;;3.20;;
69534;SDS011;56754;51.568;5.048;2023-05-07T03:15:23;5.60;;;3.00;;
69534;SDS011;56754;51.568;5.048;2023-05-07T03:17:48;7.70;;;3.50;;
69534;SDS011;56754;51.568;5.048;2023-05-07T03:20:13;5.70;;;3.47;;
69534;SDS011;56754;51.568;5.048;2023-05-07T03:22:39;5.93;;;3.10;;
69534;SDS011;56754;51.568;5.048;2023-05-07T03:25:04;6.10;;;3.47;;
69534;SDS011;56754;51.568;5.048;2023-05-07T03:27:30;5.80;;;3.72;;
69534;SDS011;56754;51.568;5.048;2023-05-07T03:29:56;6.07;;;3.20;;
69534;SDS011;56754;51.568;5.048;2023-05-07T03:32:21;6.07;;;3.10;;
69534;SDS011;56754;51.568;5.048;2023-05-07T03:34:47;6.30;;;3.13;;
69534;SDS011;56754;51.568;5.048;2023-05-07T03:37:12;6.03;;;3.37;;
69534;SDS011;56754;51.568;5.048;2023-05-07T03:39:37;6.80;;;3.73;;
69534;SDS011;56754;51.568;5.048;2023-05-07T03:42:03;6.40;;;3.70;;
69534;SDS011;56754;51.568;5.048;2023-05-07T03:44:28;5.13;;;3.15;;
69534;SDS011;56754;51.568;5.048;2023-05-07T03:46:53;5.73;;;3.33;;
69534;SDS011;56754;51.568;5.048;2023-05-07T03:49:19;5.23;;;3.27;;
69534;SDS011;56754;51.568;5.048;2023-05-07T03:51:44;6.57;;;3.80;;
69534;SDS011;56754;51.568;5.048;2023-05-07T03:54:09;5.67;;;3.43;;
69534;SDS011;56754;51.568;5.048;2023-05-07T03:56:35;6.57;;;3.87;;
69534;SDS011;56754;51.568;5.048;2023-05-07T03:59:00;6.32;;;3.42;;
69534;SDS011;56754;51.568;5.048;2023-05-07T04:01:26;6.90;;;3.57;;
69534;SDS011;56754;51.568;5.048;2023-05-07T04:03:52;6.25;;;3.88;;
69534;SDS011;56754;51.568;5.048;2023-05-07T04:06:17;6.53;;;3.63;;
69534;SDS011;56754;51.568;5.048;2023-05-07T04:08:42;7.20;;;4.00;;
69534;SDS011;56754;51.568;5.048;2023-05-07T04:11:08;6.30;;;3.57;;
69534;SDS011;56754;51.568;5.048;2023-05-07T04:13:33;7.30;;;3.53;;
69534;SDS011;56754;51.568;5.048;2023-05-07T04:16:00;5.77;;;3.60;;
69534;SDS011;56754;51.568;5.048;2023-05-07T04:18:27;6.10;;;3.38;;
69534;SDS011;56754;51.568;5.048;2023-05-07T04:20:53;6.57;;;3.60;;
69534;SDS011;56754;51.568;5.048;2023-05-07T04:23:18;7.60;;;4.10;;
69534;SDS011;56754;51.568;5.048;2023-05-07T04:25:43;6.57;;;3.80;;
69534;SDS011;56754;51.568;5.048;2023-05-07T04:28:09;7.30;;;4.37;;
69534;SDS011;56754;51.568;5.048;2023-05-07T04:30:34;6.60;;;3.27;;
69534;SDS011;56754;51.568;5.048;2023-05-07T04:32:59;7.23;;;3.47;;
69534;SDS011;56754;51.568;5.048;2023-05-07T04:35:25;5.43;;;3.70;;
69534;SDS011;56754;51.568;5.048;2023-05-07T04:37:50;5.45;;;3.35;;
69534;SDS011;56754;51.568;5.048;2023-05-07T04:40:16;6.00;;;3.57;;
69534;SDS011;56754;51.568;5.048;2023-05-07T04:42:41;6.97;;;3.93;;
69534;SDS011;56754;51.568;5.048;2023-05-07T04:45:06;7.50;;;4.03;;
69534;SDS011;56754;51.568;5.048;2023-05-07T04:47:32;6.60;;;3.55;;
69534;SDS011;56754;51.568;5.048;2023-05-07T04:49:57;6.57;;;4.00;;
69534;SDS011;56754;51.568;5.048;2023-05-07T04:52:23;6.20;;;3.60;;
69534;SDS011;56754;51.568;5.048;2023-05-07T04:54:48;8.07;;;4.38;;
69534;SDS011;56754;51.568;5.048;2023-05-07T04:57:14;7.37;;;4.20;;
69534;SDS011;56754;51.568;5.048;2023-05-07T04:59:39;7.23;;;4.10;;
69534;SDS011;56754;51.568;5.048;2023-05-07T05:02:04;7.07;;;4.13;;
69534;SDS011;56754;51.568;5.048;2023-05-07T05:04:30;8.93;;;4.67;;
69534;SDS011;56754;51.568;5.048;2023-05-07T05:06:55;7.20;;;4.50;;
69534;SDS011;56754;51.568;5.048;2023-05-07T05:09:20;6.65;;;3.85;;
69534;SDS011;56754;51.568;5.048;2023-05-07T05:11:46;6.83;;;4.10;;
69534;SDS011;56754;51.568;5.048;2023-05-07T05:14:11;6.20;;;4.10;;
69534;SDS011;56754;51.568;5.048;2023-05-07T05:16:36;6.87;;;4.40;;
69534;SDS011;56754;51.568;5.048;2023-05-07T05:19:02;7.23;;;4.33;;
69534;SDS011;56754;51.568;5.048;2023-05-07T05:21:31;7.30;;;4.15;;
69534;SDS011;56754;51.568;5.048;2023-05-07T05:23:57;6.27;;;3.80;;
69534;SDS011;56754;51.568;5.048;2023-05-07T05:26:23;7.68;;;4.40;;
69534;SDS011;56754;51.568;5.048;2023-05-07T05:28:48;7.07;;;4.23;;
69534;SDS011;56754;51.568;5.048;2023-05-07T05:31:14;7.72;;;4.55;;
69534;SDS011;56754;51.568;5.048;2023-05-07T05:33:39;6.60;;;4.10;;
69534;SDS011;56754;51.568;5.048;2023-05-07T05:36:05;8.13;;;4.50;;
69534;SDS011;56754;51.568;5.048;2023-05-07T05:38:31;7.15;;;4.25;;
69534;SDS011;56754;51.568;5.048;2023-05-07T05:40:56;7.03;;;4.10;;
69534;SDS011;56754;51.568;5.048;2023-05-07T05:43:21;7.13;;;4.90;;
69534;SDS011;56754;51.568;5.048;2023-05-07T05:45:47;7.27;;;4.87;;
69534;SDS011;56754;51.568;5.048;2023-05-07T05:48:12;7.63;;;5.18;;
69534;SDS011;56754;51.568;5.048;2023-05-07T05:50:38;7.20;;;4.73;;
69534;SDS011;56754;51.568;5.048;2023-05-07T05:53:03;8.43;;;5.60;;
69534;SDS011;56754;51.568;5.048;2023-05-07T05:55:28;9.45;;;4.93;;
69534;SDS011;56754;51.568;5.048;2023-05-07T05:57:55;9.03;;;5.33;;
69534;SDS011;56754;51.568;5.048;2023-05-07T06:00:21;10.57;;;5.72;;
69534;SDS011;56754;51.568;5.048;2023-05-07T06:02:46;9.50;;;6.10;;
69534;SDS011;56754;51.568;5.048;2023-05-07T06:05:11;8.67;;;6.40;;
69534;SDS011;56754;51.568;5.048;2023-05-07T06:07:37;10.52;;;5.82;;
69534;SDS011;56754;51.568;5.048;2023-05-07T06:10:02;9.70;;;6.30;;
69534;SDS011;56754;51.568;5.048;2023-05-07T06:12:27;13.23;;;8.73;;
69534;SDS011;56754;51.568;5.048;2023-05-07T06:14:53;13.15;;;9.75;;
69534;SDS011;56754;51.568;5.048;2023-05-07T06:17:19;12.17;;;8.90;;
69534;SDS011;56754;51.568;5.048;2023-05-07T06:19:44;13.10;;;9.37;;
69534;SDS011;56754;51.568;5.048;2023-05-07T06:22:10;13.83;;;9.73;;
69534;SDS011;56754;51.568;5.048;2023-05-07T06:24:35;16.02;;;10.52;;
69534;SDS011;56754;51.568;5.048;2023-05-07T06:27:00;14.43;;;11.03;;
69534;SDS011;56754;51.568;5.048;2023-05-07T06:29:26;13.73;;;10.33;;
69534;SDS011;56754;51.568;5.048;2023-05-07T06:31:55;15.40;;;11.68;;
69534;SDS011;56754;51.568;5.048;2023-05-07T06:34:20;13.73;;;9.37;;
69534;SDS011;56754;51.568;5.048;2023-05-07T06:36:45;13.27;;;9.68;;
69534;SDS011;56754;51.568;5.048;2023-05-07T06:39:11;11.07;;;7.63;;
69534;SDS011;56754;51.568;5.048;2023-05-07T06:41:36;15.70;;;10.90;;
69534;SDS011;56754;51.568;5.048;2023-05-07T06:44:02;15.57;;;9.77;;
69534;SDS011;56754;51.568;5.048;2023-05-07T06:46:28;13.10;;;9.60;;
69534;SDS011;56754;51.568;5.048;2023-05-07T06:48:54;13.63;;;9.57;;
69534;SDS011;56754;51.568;5.048;2023-05-07T06:51:19;11.50;;;8.37;;
69534;SDS011;56754;51.568;5.048;2023-05-07T06:53:44;10.80;;;6.87;;
69534;SDS011;56754;51.568;5.048;2023-05-07T06:56:10;8.83;;;5.77;;
69534;SDS011;56754;51.568;5.048;2023-05-07T06:58:36;8.53;;;5.67;;
69534;SDS011;56754;51.568;5.048;2023-05-07T07:01:02;8.75;;;5.82;;
69534;SDS011;56754;51.568;5.048;2023-05-07T07:03:27;8.80;;;5.77;;
69534;SDS011;56754;51.568;5.048;2023-05-07T07:05:53;9.27;;;5.90;;
69534;SDS011;56754;51.568;5.048;2023-05-07T07:08:18;8.50;;;5.45;;
69534;SDS011;56754;51.568;5.048;2023-05-07T07:10:44;8.03;;;5.33;;
69534;SDS011;56754;51.568;5.048;2023-05-07T07:13:09;7.97;;;5.47;;
69534;SDS011;56754;51.568;5.048;2023-05-07T07:15:34;8.80;;;5.68;;
69534;SDS011;56754;51.568;5.048;2023-05-07T07:18:00;8.37;;;5.20;;
69534;SDS011;56754;51.568;5.048;2023-05-07T07:20:25;9.50;;;5.40;;
69534;SDS011;56754;51.568;5.048;2023-05-07T07:22:50;8.47;;;5.13;;
69534;SDS011;56754;51.568;5.048;2023-05-07T07:25:16;7.40;;;4.50;;
69534;SDS011;56754;51.568;5.048;2023-05-07T07:27:41;8.23;;;4.77;;
69534;SDS011;56754;51.568;5.048;2023-05-07T07:30:06;7.23;;;4.53;;
69534;SDS011;56754;51.568;5.048;2023-05-07T07:32:32;7.10;;;4.40;;
69534;SDS011;56754;51.568;5.048;2023-05-07T07:34:58;8.57;;;4.97;;
69534;SDS011;56754;51.568;5.048;2023-05-07T07:37:23;7.35;;;4.45;;
69534;SDS011;56754;51.568;5.048;2023-05-07T07:39:48;8.43;;;5.07;;
69534;SDS011;56754;51.568;5.048;2023-05-07T07:42:14;8.00;;;4.70;;
69534;SDS011;56754;51.568;5.048;2023-05-07T07:44:39;6.80;;;4.50;;
69534;SDS011;56754;51.568;5.048;2023-05-07T07:47:05;7.20;;;4.50;;
69534;SDS011;56754;51.568;5.048;2023-05-07T07:49:31;7.77;;;4.17;;
69534;SDS011;56754;51.568;5.048;2023-05-07T07:51:56;7.85;;;4.38;;
69534;SDS011;56754;51.568;5.048;2023-05-07T07:54:21;6.37;;;4.00;;
69534;SDS011;56754;51.568;5.048;2023-05-07T07:56:47;6.97;;;4.20;;
69534;SDS011;56754;51.568;5.048;2023-05-07T07:59:12;6.20;;;3.70;;
69534;SDS011;56754;51.568;5.048;2023-05-07T08:01:37;6.93;;;4.30;;
69534;SDS011;56754;51.568;5.048;2023-05-07T08:04:03;7.00;;;4.17;;
69534;SDS011;56754;51.568;5.048;2023-05-07T08:06:28;7.15;;;3.97;;
69534;SDS011;56754;51.568;5.048;2023-05-07T08:08:54;6.50;;;3.80;;
69534;SDS011;56754;51.568;5.048;2023-05-07T08:11:19;6.38;;;3.97;;
69534;SDS011;56754;51.568;5.048;2023-05-07T08:13:45;6.73;;;4.13;;
69534;SDS011;56754;51.568;5.048;2023-05-07T08:16:11;8.27;;;4.20;;
69534;SDS011;56754;51.568;5.048;2023-05-07T08:18:36;6.70;;;3.58;;
69534;SDS011;56754;51.568;5.048;2023-05-07T08:21:01;8.00;;;4.27;;
69534;SDS011;56754;51.568;5.048;2023-05-07T08:23:27;6.53;;;3.87;;
69534;SDS011;56754;51.568;5.048;2023-05-07T08:25:52;8.00;;;4.03;;
69534;SDS011;56754;51.568;5.048;2023-05-07T08:28:18;5.75;;;3.58;;
69534;SDS011;56754;51.568;5.048;2023-05-07T08:30:43;6.63;;;3.70;;
69534;SDS011;56754;51.568;5.048;2023-05-07T08:33:08;6.73;;;3.70;;
69534;SDS011;56754;51.568;5.048;2023-05-07T08:35:34;6.53;;;3.70;;
69534;SDS011;56754;51.568;5.048;2023-05-07T08:37:59;6.50;;;3.73;;
69534;SDS011;56754;51.568;5.048;2023-05-07T08:40:25;6.90;;;3.53;;
69534;SDS011;56754;51.568;5.048;2023-05-07T08:42:51;7.73;;;3.70;;
69534;SDS011;56754;51.568;5.048;2023-05-07T08:45:18;5.85;;;3.40;;
69534;SDS011;56754;51.568;5.048;2023-05-07T08:47:45;6.00;;;3.33;;
69534;SDS011;56754;51.568;5.048;2023-05-07T08:50:14;6.30;;;3.75;;
69534;SDS011;56754;51.568;5.048;2023-05-07T08:52:40;6.43;;;3.47;;
69534;SDS011;56754;51.568;5.048;2023-05-07T08:55:06;7.50;;;3.55;;
69534;SDS011;56754;51.568;5.048;2023-05-07T08:57:32;6.88;;;3.47;;
69534;SDS011;56754;51.568;5.048;2023-05-07T08:59:57;6.10;;;3.30;;
69534;SDS011;56754;51.568;5.048;2023-05-07T09:02:23;6.40;;;3.57;;
69534;SDS011;56754;51.568;5.048;2023-05-07T09:04:48;6.27;;;3.27;;
69534;SDS011;56754;51.568;5.048;2023-05-07T09:07:14;6.23;;;3.30;;
69534;SDS011;56754;51.568;5.048;2023-05-07T09:09:39;6.27;;;3.57;;
69534;SDS011;56754;51.568;5.048;2023-05-07T09:12:04;6.38;;;3.45;;
69534;SDS011;56754;51.568;5.048;2023-05-07T09:14:30;6.13;;;3.30;;
69534;SDS011;56754;51.568;5.048;2023-05-07T09:16:56;5.87;;;3.17;;
69534;SDS011;56754;51.568;5.048;2023-05-07T09:19:25;6.78;;;3.63;;
69534;SDS011;56754;51.568;5.048;2023-05-07T09:21:58;6.20;;;3.40;;
69534;SDS011;56754;51.568;5.048;2023-05-07T09:24:27;5.97;;;3.53;;
69534;SDS011;56754;51.568;5.048;2023-05-07T09:26:53;8.57;;;3.57;;
69534;SDS011;56754;51.568;5.048;2023-05-07T09:29:18;6.03;;;3.33;;
69534;SDS011;56754;51.568;5.048;2023-05-07T09:31:43;6.57;;;3.20;;
69534;SDS011;56754;51.568;5.048;2023-05-07T09:34:09;4.97;;;3.00;;
69534;SDS011;56754;51.568;5.048;2023-05-07T09:36:34;6.33;;;3.43;;
69534;SDS011;56754;51.568;5.048;2023-05-07T09:38:59;5.70;;;3.00;;
69534;SDS011;56754;51.568;5.048;2023-05-07T09:41:25;7.93;;;3.10;;
69534;SDS011;56754;51.568;5.048;2023-05-07T09:43:54;5.78;;;3.00;;
69534;SDS011;56754;51.568;5.048;2023-05-07T09:46:20;6.70;;;3.13;;
69534;SDS011;56754;51.568;5.048;2023-05-07T09:48:52;5.85;;;3.17;;
69534;SDS011;56754;51.568;5.048;2023-05-07T09:51:22;6.23;;;2.97;;
69534;SDS011;56754;51.568;5.048;2023-05-07T09:53:50;4.50;;;2.70;;
69534;SDS011;56754;51.568;5.048;2023-05-07T09:56:18;6.15;;;3.20;;
69534;SDS011;56754;51.568;5.048;2023-05-07T09:58:44;5.20;;;3.00;;
69534;SDS011;56754;51.568;5.048;2023-05-07T10:01:11;6.45;;;3.13;;
69534;SDS011;56754;51.568;5.048;2023-05-07T10:03:38;5.27;;;3.10;;
69534;SDS011;56754;51.568;5.048;2023-05-07T10:06:05;5.57;;;2.90;;
69534;SDS011;56754;51.568;5.048;2023-05-07T10:08:31;5.68;;;3.20;;
69534;SDS011;56754;51.568;5.048;2023-05-07T10:10:57;5.07;;;2.80;;
69534;SDS011;56754;51.568;5.048;2023-05-07T10:13:24;5.78;;;2.90;;
69534;SDS011;56754;51.568;5.048;2023-05-07T10:15:49;6.00;;;3.00;;
69534;SDS011;56754;51.568;5.048;2023-05-07T10:18:15;7.20;;;3.03;;
69534;SDS011;56754;51.568;5.048;2023-05-07T10:20:43;5.13;;;2.92;;
69534;SDS011;56754;51.568;5.048;2023-05-07T10:23:13;5.05;;;2.70;;
69534;SDS011;56754;51.568;5.048;2023-05-07T10:25:44;5.03;;;2.67;;
69534;SDS011;56754;51.568;5.048;2023-05-07T10:28:10;5.07;;;2.93;;
69534;SDS011;56754;51.568;5.048;2023-05-07T10:30:47;5.47;;;3.00;;
69534;SDS011;56754;51.568;5.048;2023-05-07T10:33:21;5.22;;;2.85;;
69534;SDS011;56754;51.568;5.048;2023-05-07T10:35:51;5.63;;;3.00;;
69534;SDS011;56754;51.568;5.048;2023-05-07T10:38:20;5.20;;;2.90;;
69534;SDS011;56754;51.568;5.048;2023-05-07T10:40:46;5.03;;;2.80;;
69534;SDS011;56754;51.568;5.048;2023-05-07T10:43:11;5.63;;;2.80;;
69534;SDS011;56754;51.568;5.048;2023-05-07T10:45:36;6.00;;;2.90;;
69534;SDS011;56754;51.568;5.048;2023-05-07T10:48:15;5.40;;;2.80;;
69534;SDS011;56754;51.568;5.048;2023-05-07T10:50:44;5.43;;;2.72;;
69534;SDS011;56754;51.568;5.048;2023-05-07T10:56:37;4.85;;;2.50;;
69534;SDS011;56754;51.568;5.048;2023-05-07T10:58:54;5.22;;;2.70;;
69534;SDS011;56754;51.568;5.048;2023-05-07T11:04:23;5.25;;;2.60;;
69534;SDS011;56754;51.568;5.048;2023-05-07T11:12:16;5.67;;;2.70;;
69534;SDS011;56754;51.568;5.048;2023-05-07T11:14:45;6.05;;;2.50;;
69534;SDS011;56754;51.568;5.048;2023-05-07T11:17:11;4.38;;;2.17;;
69534;SDS011;56754;51.568;5.048;2023-05-07T11:19:52;6.25;;;2.80;;
69534;SDS011;56754;51.568;5.048;2023-05-07T11:25:00;5.00;;;2.30;;
69534;SDS011;56754;51.568;5.048;2023-05-07T11:27:26;5.72;;;2.42;;
69534;SDS011;56754;51.568;5.048;2023-05-07T11:29:52;4.50;;;2.50;;
69534;SDS011;56754;51.568;5.048;2023-05-07T11:32:27;5.40;;;2.55;;
69534;SDS011;56754;51.568;5.048;2023-05-07T11:34:56;5.63;;;2.80;;
69534;SDS011;56754;51.568;5.048;2023-05-07T11:37:23;5.13;;;2.47;;
69534;SDS011;56754;51.568;5.048;2023-05-07T11:39:50;4.53;;;2.50;;
69534;SDS011;56754;51.568;5.048;2023-05-07T11:42:29;5.28;;;2.60;;
69534;SDS011;56754;51.568;5.048;2023-05-07T11:44:55;5.32;;;2.80;;
69534;SDS011;56754;51.568;5.048;2023-05-07T11:47:21;5.35;;;2.47;;
69534;SDS011;56754;51.568;5.048;2023-05-07T11:49:50;4.57;;;2.63;;
69534;SDS011;56754;51.568;5.048;2023-05-07T11:52:18;4.82;;;2.58;;
69534;SDS011;56754;51.568;5.048;2023-05-07T11:54:51;5.13;;;2.58;;
69534;SDS011;56754;51.568;5.048;2023-05-07T11:57:20;5.73;;;2.50;;
69534;SDS011;56754;51.568;5.048;2023-05-07T11:59:46;5.60;;;2.55;;
69534;SDS011;56754;51.568;5.048;2023-05-07T12:02:13;4.72;;;2.50;;
69534;SDS011;56754;51.568;5.048;2023-05-07T12:04:42;5.20;;;2.37;;
69534;SDS011;56754;51.568;5.048;2023-05-07T12:07:11;4.80;;;2.30;;
69534;SDS011;56754;51.568;5.048;2023-05-07T12:09:37;4.75;;;2.10;;
69534;SDS011;56754;51.568;5.048;2023-05-07T12:12:03;4.43;;;2.20;;
69534;SDS011;56754;51.568;5.048;2023-05-07T12:14:29;4.82;;;2.25;;
69534;SDS011;56754;51.568;5.048;2023-05-07T12:16:54;4.77;;;2.10;;
69534;SDS011;56754;51.568;5.048;2023-05-07T12:19:20;4.75;;;2.30;;
69534;SDS011;56754;51.568;5.048;2023-05-07T12:21:46;4.17;;;2.20;;
69534;SDS011;56754;51.568;5.048;2023-05-07T12:24:11;3.80;;;2.00;;
69534;SDS011;56754;51.568;5.048;2023-05-07T12:26:39;5.65;;;2.45;;
69534;SDS011;56754;51.568;5.048;2023-05-07T12:29:05;5.40;;;2.30;;
69534;SDS011;56754;51.568;5.048;2023-05-07T12:31:31;4.47;;;2.20;;
69534;SDS011;56754;51.568;5.048;2023-05-07T12:33:57;6.25;;;2.47;;
69534;SDS011;56754;51.568;5.048;2023-05-07T12:36:22;4.40;;;2.43;;
69534;SDS011;56754;51.568;5.048;2023-05-07T12:38:49;5.40;;;2.33;;
69534;SDS011;56754;51.568;5.048;2023-05-07T12:41:14;4.82;;;2.13;;
69534;SDS011;56754;51.568;5.048;2023-05-07T12:43:40;4.70;;;2.03;;
69534;SDS011;56754;51.568;5.048;2023-05-07T12:46:09;4.30;;;1.80;;
69534;SDS011;56754;51.568;5.048;2023-05-07T12:48:38;4.75;;;2.20;;
69534;SDS011;56754;51.568;5.048;2023-05-07T12:51:08;4.67;;;1.90;;
69534;SDS011;56754;51.568;5.048;2023-05-07T12:53:33;4.45;;;2.00;;
69534;SDS011;56754;51.568;5.048;2023-05-07T12:56:05;4.30;;;1.88;;
69534;SDS011;56754;51.568;5.048;2023-05-07T12:58:32;4.40;;;1.93;;
69534;SDS011;56754;51.568;5.048;2023-05-07T13:01:00;4.72;;;2.10;;
69534;SDS011;56754;51.568;5.048;2023-05-07T13:03:30;4.18;;;2.10;;
69534;SDS011;56754;51.568;5.048;2023-05-07T13:06:00;4.00;;;1.83;;
69534;SDS011;56754;51.568;5.048;2023-05-07T13:08:31;4.43;;;1.97;;
69534;SDS011;56754;51.568;5.048;2023-05-07T13:11:00;4.63;;;2.00;;
69534;SDS011;56754;51.568;5.048;2023-05-07T13:13:26;5.15;;;2.08;;
69534;SDS011;56754;51.568;5.048;2023-05-07T13:15:52;4.03;;;1.60;;
69534;SDS011;56754;51.568;5.048;2023-05-07T13:18:18;4.33;;;2.00;;
69534;SDS011;56754;51.568;5.048;2023-05-07T13:20:43;4.30;;;1.90;;
69534;SDS011;56754;51.568;5.048;2023-05-07T13:23:08;4.50;;;2.07;;
69534;SDS011;56754;51.568;5.048;2023-05-07T13:25:33;5.43;;;2.00;;
69534;SDS011;56754;51.568;5.048;2023-05-07T13:27:59;4.63;;;1.77;;
69534;SDS011;56754;51.568;5.048;2023-05-07T13:30:24;4.10;;;1.92;;
69534;SDS011;56754;51.568;5.048;2023-05-07T13:32:50;3.93;;;1.67;;
69534;SDS011;56754;51.568;5.048;2023-05-07T13:35:15;5.37;;;2.17;;
69534;SDS011;56754;51.568;5.048;2023-05-07T13:37:41;4.28;;;1.95;;
69534;SDS011;56754;51.568;5.048;2023-05-07T13:40:10;4.17;;;1.90;;
69534;SDS011;56754;51.568;5.048;2023-05-07T13:42:36;4.05;;;1.85;;
69534;SDS011;56754;51.568;5.048;2023-05-07T13:45:01;4.60;;;1.97;;
69534;SDS011;56754;51.568;5.048;2023-05-07T13:47:26;4.13;;;1.70;;
69534;SDS011;56754;51.568;5.048;2023-05-07T13:49:53;4.13;;;1.60;;
69534;SDS011;56754;51.568;5.048;2023-05-07T13:52:18;3.80;;;1.90;;
69534;SDS011;56754;51.568;5.048;2023-05-07T13:54:44;4.07;;;1.95;;
69534;SDS011;56754;51.568;5.048;2023-05-07T13:57:09;4.10;;;1.60;;
69534;SDS011;56754;51.568;5.048;2023-05-07T13:59:34;4.27;;;1.80;;
69534;SDS011;56754;51.568;5.048;2023-05-07T14:02:00;3.90;;;1.77;;
69534;SDS011;56754;51.568;5.048;2023-05-07T14:04:25;3.87;;;1.60;;
69534;SDS011;56754;51.568;5.048;2023-05-07T14:06:50;4.22;;;1.70;;
69534;SDS011;56754;51.568;5.048;2023-05-07T14:09:16;3.77;;;1.57;;
69534;SDS011;56754;51.568;5.048;2023-05-07T14:11:41;4.00;;;1.60;;
69534;SDS011;56754;51.568;5.048;2023-05-07T14:14:10;3.85;;;1.73;;
69534;SDS011;56754;51.568;5.048;2023-05-07T14:16:36;4.30;;;1.67;;
69534;SDS011;56754;51.568;5.048;2023-05-07T14:19:01;4.40;;;1.63;;
69534;SDS011;56754;51.568;5.048;2023-05-07T14:21:27;4.50;;;1.70;;
69534;SDS011;56754;51.568;5.048;2023-05-07T14:23:52;4.63;;;1.97;;
69534;SDS011;56754;51.568;5.048;2023-05-07T14:26:17;5.03;;;1.93;;
69534;SDS011;56754;51.568;5.048;2023-05-07T14:28:43;3.60;;;1.63;;
69534;SDS011;56754;51.568;5.048;2023-05-07T14:31:08;3.83;;;1.50;;
69534;SDS011;56754;51.568;5.048;2023-05-07T14:33:33;4.33;;;1.80;;
69534;SDS011;56754;51.568;5.048;2023-05-07T14:35:59;2.97;;;1.50;;
69534;SDS011;56754;51.568;5.048;2023-05-07T14:38:24;4.00;;;1.60;;
69534;SDS011;56754;51.568;5.048;2023-05-07T14:40:49;3.90;;;1.70;;
69534;SDS011;56754;51.568;5.048;2023-05-07T14:43:15;3.88;;;1.42;;
69534;SDS011;56754;51.568;5.048;2023-05-07T14:45:40;3.60;;;1.50;;
69534;SDS011;56754;51.568;5.048;2023-05-07T14:48:05;3.60;;;1.63;;
69534;SDS011;56754;51.568;5.048;2023-05-07T14:50:30;4.47;;;1.57;;
69534;SDS011;56754;51.568;5.048;2023-05-07T14:52:56;3.97;;;1.57;;
69534;SDS011;56754;51.568;5.048;2023-05-07T14:55:21;3.33;;;1.40;;